sensor_id;sensor_type;location;lat;lon;timestamp;temperature;humidity
60965;DHT22;46834;51.100;6.886;2023-03-01T00:02:04;2.40;33.60
60965;DHT22;46834;51.100;6.886;2023-03-01T00:04:30;2.40;33.60
60965;DHT22;46834;51.100;6.886;2023-03-01T00:06:56;2.40;33.60
60965;DHT22;46834;51.100;6.886;2023-03-01T00:09:22;2.30;33.60
60965;DHT22;46834;51.100;6.886;2023-03-01T00:11:48;2.30;33.70
60965;DHT22;46834;51.100;6.886;2023-03-01T00:14:14;2.30;33.80
60965;DHT22;46834;51.100;6.886;2023-03-01T00:16:43;2.30;33.80
60965;DHT22;46834;51.100;6.886;2023-03-01T00:19:12;2.30;33.80
60965;DHT22;46834;51.100;6.886;2023-03-01T00:21:39;2.30;33.90
60965;DHT22;46834;51.100;6.886;2023-03-01T00:24:05;2.30;33.80
60965;DHT22;46834;51.100;6.886;2023-03-01T00:26:32;2.20;33.80
60965;DHT22;46834;51.100;6.886;2023-03-01T00:28:58;2.20;33.80
60965;DHT22;46834;51.100;6.886;2023-03-01T00:31:27;2.20;33.90
60965;DHT22;46834;51.100;6.886;2023-03-01T00:33:57;2.20;34.00
60965;DHT22;46834;51.100;6.886;2023-03-01T00:36:26;2.20;34.00
60965;DHT22;46834;51.100;6.886;2023-03-01T00:38:54;2.20;34.00
60965;DHT22;46834;51.100;6.886;2023-03-01T00:41:21;2.10;33.90
60965;DHT22;46834;51.100;6.886;2023-03-01T00:43:48;2.10;33.90
60965;DHT22;46834;51.100;6.886;2023-03-01T00:46:18;2.10;34.00
60965;DHT22;46834;51.100;6.886;2023-03-01T00:48:45;2.10;34.10
60965;DHT22;46834;51.100;6.886;2023-03-01T00:51:14;2.10;34.10
60965;DHT22;46834;51.100;6.886;2023-03-01T00:53:41;2.00;34.00
60965;DHT22;46834;51.100;6.886;2023-03-01T00:56:13;2.00;34.00
60965;DHT22;46834;51.100;6.886;2023-03-01T00:58:39;2.00;34.20
60965;DHT22;46834;51.100;6.886;2023-03-01T01:01:10;2.00;34.10
60965;DHT22;46834;51.100;6.886;2023-03-01T01:03:55;2.00;34.30
60965;DHT22;46834;51.100;6.886;2023-03-01T01:06:33;2.00;34.30
60965;DHT22;46834;51.100;6.886;2023-03-01T01:09:08;2.00;34.10
60965;DHT22;46834;51.100;6.886;2023-03-01T01:11:46;1.90;34.00
60965;DHT22;46834;51.100;6.886;2023-03-01T01:14:14;1.90;34.10
60965;DHT22;46834;51.100;6.886;2023-03-01T01:16:40;1.90;34.10
60965;DHT22;46834;51.100;6.886;2023-03-01T01:19:05;1.90;34.10
60965;DHT22;46834;51.100;6.886;2023-03-01T01:21:32;1.90;34.20
60965;DHT22;46834;51.100;6.886;2023-03-01T01:23:58;1.90;34.20
60965;DHT22;46834;51.100;6.886;2023-03-01T01:26:26;1.80;34.10
60965;DHT22;46834;51.100;6.886;2023-03-01T01:28:54;1.80;34.10
60965;DHT22;46834;51.100;6.886;2023-03-01T01:31:21;1.80;34.10
60965;DHT22;46834;51.100;6.886;2023-03-01T01:33:49;1.80;34.20
60965;DHT22;46834;51.100;6.886;2023-03-01T01:36:16;1.80;34.20
60965;DHT22;46834;51.100;6.886;2023-03-01T01:38:42;1.80;34.20
60965;DHT22;46834;51.100;6.886;2023-03-01T01:41:08;1.70;34.20
60965;DHT22;46834;51.100;6.886;2023-03-01T01:43:41;1.70;34.30
60965;DHT22;46834;51.100;6.886;2023-03-01T01:46:32;1.80;34.40
60965;DHT22;46834;51.100;6.886;2023-03-01T01:49:05;1.70;34.20
60965;DHT22;46834;51.100;6.886;2023-03-01T01:51:41;1.70;34.50
60965;DHT22;46834;51.100;6.886;2023-03-01T01:54:16;1.70;34.40
60965;DHT22;46834;51.100;6.886;2023-03-01T01:56:51;1.70;34.50
60965;DHT22;46834;51.100;6.886;2023-03-01T01:59:23;1.70;34.50
60965;DHT22;46834;51.100;6.886;2023-03-01T02:01:52;1.70;34.40
60965;DHT22;46834;51.100;6.886;2023-03-01T02:04:18;1.60;34.40
60965;DHT22;46834;51.100;6.886;2023-03-01T02:07:06;1.60;34.40
60965;DHT22;46834;51.100;6.886;2023-03-01T02:09:46;1.60;34.90
60965;DHT22;46834;51.100;6.886;2023-03-01T02:12:14;1.60;34.50
60965;DHT22;46834;51.100;6.886;2023-03-01T02:14:42;1.60;34.50
60965;DHT22;46834;51.100;6.886;2023-03-01T02:17:10;1.60;34.50
60965;DHT22;46834;51.100;6.886;2023-03-01T02:22:43;1.50;34.70
60965;DHT22;46834;51.100;6.886;2023-03-01T02:28:08;1.50;34.70
60965;DHT22;46834;51.100;6.886;2023-03-01T02:30:48;1.50;35.00
60965;DHT22;46834;51.100;6.886;2023-03-01T02:33:36;1.50;35.20
60965;DHT22;46834;51.100;6.886;2023-03-01T02:36:08;1.40;34.50
60965;DHT22;46834;51.100;6.886;2023-03-01T02:38:39;1.40;35.20
60965;DHT22;46834;51.100;6.886;2023-03-01T02:41:07;1.40;34.60
60965;DHT22;46834;51.100;6.886;2023-03-01T02:43:36;1.40;34.60
60965;DHT22;46834;51.100;6.886;2023-03-01T02:46:08;1.40;34.60
60965;DHT22;46834;51.100;6.886;2023-03-01T02:48:41;1.40;34.90
60965;DHT22;46834;51.100;6.886;2023-03-01T02:56:38;1.30;34.80
60965;DHT22;46834;51.100;6.886;2023-03-01T02:59:04;1.30;34.70
60965;DHT22;46834;51.100;6.886;2023-03-01T03:01:30;1.30;34.70
60965;DHT22;46834;51.100;6.886;2023-03-01T03:04:03;1.30;34.80
60965;DHT22;46834;51.100;6.886;2023-03-01T03:06:35;1.30;34.80
60965;DHT22;46834;51.100;6.886;2023-03-01T03:09:02;1.20;34.70
60965;DHT22;46834;51.100;6.886;2023-03-01T03:11:29;1.20;34.80
60965;DHT22;46834;51.100;6.886;2023-03-01T03:13:56;1.20;34.80
60965;DHT22;46834;51.100;6.886;2023-03-01T03:16:23;1.20;34.80
60965;DHT22;46834;51.100;6.886;2023-03-01T03:18:50;1.20;34.90
60965;DHT22;46834;51.100;6.886;2023-03-01T03:21:16;1.20;34.90
60965;DHT22;46834;51.100;6.886;2023-03-01T03:23:42;1.20;34.90
60965;DHT22;46834;51.100;6.886;2023-03-01T03:26:08;1.10;34.80
60965;DHT22;46834;51.100;6.886;2023-03-01T03:28:34;1.20;35.00
60965;DHT22;46834;51.100;6.886;2023-03-01T03:31:01;1.10;34.90
60965;DHT22;46834;51.100;6.886;2023-03-01T03:33:30;1.10;34.90
60965;DHT22;46834;51.100;6.886;2023-03-01T03:35:56;1.10;34.90
60965;DHT22;46834;51.100;6.886;2023-03-01T03:38:22;1.10;35.00
60965;DHT22;46834;51.100;6.886;2023-03-01T03:40:50;1.10;35.00
60965;DHT22;46834;51.100;6.886;2023-03-01T03:43:38;1.10;35.10
60965;DHT22;46834;51.100;6.886;2023-03-01T03:46:06;1.10;35.10
60965;DHT22;46834;51.100;6.886;2023-03-01T03:48:37;1.10;35.10
60965;DHT22;46834;51.100;6.886;2023-03-01T03:51:13;1.10;35.30
60965;DHT22;46834;51.100;6.886;2023-03-01T03:53:40;1.10;35.30
60965;DHT22;46834;51.100;6.886;2023-03-01T03:56:07;1.00;35.10
60965;DHT22;46834;51.100;6.886;2023-03-01T03:58:34;1.00;35.10
60965;DHT22;46834;51.100;6.886;2023-03-01T04:01:00;1.00;35.20
60965;DHT22;46834;51.100;6.886;2023-03-01T04:03:27;1.00;35.20
60965;DHT22;46834;51.100;6.886;2023-03-01T04:05:54;1.00;35.30
60965;DHT22;46834;51.100;6.886;2023-03-01T04:08:23;1.00;35.20
60965;DHT22;46834;51.100;6.886;2023-03-01T04:10:51;1.00;35.20
60965;DHT22;46834;51.100;6.886;2023-03-01T04:13:21;1.00;35.30
60965;DHT22;46834;51.100;6.886;2023-03-01T04:15:51;1.00;35.30
60965;DHT22;46834;51.100;6.886;2023-03-01T04:18:19;0.90;35.30
60965;DHT22;46834;51.100;6.886;2023-03-01T04:20:47;0.90;35.20
60965;DHT22;46834;51.100;6.886;2023-03-01T04:23:18;0.90;35.20
60965;DHT22;46834;51.100;6.886;2023-03-01T04:25:50;0.90;35.30
60965;DHT22;46834;51.100;6.886;2023-03-01T04:28:40;0.90;35.30
60965;DHT22;46834;51.100;6.886;2023-03-01T04:31:16;0.90;35.70
60965;DHT22;46834;51.100;6.886;2023-03-01T04:33:54;0.90;35.30
60965;DHT22;46834;51.100;6.886;2023-03-01T04:36:27;0.90;35.50
60965;DHT22;46834;51.100;6.886;2023-03-01T04:38:55;0.90;35.40
60965;DHT22;46834;51.100;6.886;2023-03-01T04:41:23;0.90;35.30
60965;DHT22;46834;51.100;6.886;2023-03-01T04:43:50;0.80;35.30
60965;DHT22;46834;51.100;6.886;2023-03-01T04:46:19;0.80;35.20
60965;DHT22;46834;51.100;6.886;2023-03-01T04:48:46;0.80;35.30
60965;DHT22;46834;51.100;6.886;2023-03-01T04:51:12;0.80;35.30
60965;DHT22;46834;51.100;6.886;2023-03-01T04:53:39;0.90;35.40
60965;DHT22;46834;51.100;6.886;2023-03-01T04:56:06;0.80;35.30
60965;DHT22;46834;51.100;6.886;2023-03-01T04:58:32;0.80;35.30
60965;DHT22;46834;51.100;6.886;2023-03-01T05:00:58;0.80;35.40
60965;DHT22;46834;51.100;6.886;2023-03-01T05:03:24;0.70;35.30
60965;DHT22;46834;51.100;6.886;2023-03-01T05:05:51;0.70;35.30
60965;DHT22;46834;51.100;6.886;2023-03-01T05:08:19;0.70;35.40
60965;DHT22;46834;51.100;6.886;2023-03-01T05:10:51;0.70;35.40
60965;DHT22;46834;51.100;6.886;2023-03-01T05:13:19;0.70;35.60
60965;DHT22;46834;51.100;6.886;2023-03-01T05:15:55;0.70;35.40
60965;DHT22;46834;51.100;6.886;2023-03-01T05:18:23;0.70;35.40
60965;DHT22;46834;51.100;6.886;2023-03-01T05:20:54;0.70;35.40
60965;DHT22;46834;51.100;6.886;2023-03-01T05:23:22;0.70;35.40
60965;DHT22;46834;51.100;6.886;2023-03-01T05:25:48;0.60;35.40
60965;DHT22;46834;51.100;6.886;2023-03-01T05:28:14;0.60;35.40
60965;DHT22;46834;51.100;6.886;2023-03-01T05:30:40;0.60;35.40
60965;DHT22;46834;51.100;6.886;2023-03-01T05:33:07;0.60;35.40
60965;DHT22;46834;51.100;6.886;2023-03-01T05:35:44;0.60;35.40
60965;DHT22;46834;51.100;6.886;2023-03-01T05:38:11;0.60;35.50
60965;DHT22;46834;51.100;6.886;2023-03-01T05:40:41;0.60;35.40
60965;DHT22;46834;51.100;6.886;2023-03-01T05:43:09;0.60;35.50
60965;DHT22;46834;51.100;6.886;2023-03-01T05:45:36;0.60;35.40
60965;DHT22;46834;51.100;6.886;2023-03-01T05:48:04;0.60;35.50
60965;DHT22;46834;51.100;6.886;2023-03-01T05:50:42;0.60;35.60
60965;DHT22;46834;51.100;6.886;2023-03-01T05:53:12;0.60;35.70
60965;DHT22;46834;51.100;6.886;2023-03-01T05:55:40;0.60;35.50
60965;DHT22;46834;51.100;6.886;2023-03-01T05:58:11;0.60;35.50
60965;DHT22;46834;51.100;6.886;2023-03-01T06:00:42;0.60;35.60
60965;DHT22;46834;51.100;6.886;2023-03-01T06:03:11;0.60;35.50
60965;DHT22;46834;51.100;6.886;2023-03-01T06:05:38;0.50;35.40
60965;DHT22;46834;51.100;6.886;2023-03-01T06:08:06;0.50;35.40
60965;DHT22;46834;51.100;6.886;2023-03-01T06:10:32;0.50;36.10
60965;DHT22;46834;51.100;6.886;2023-03-01T06:12:58;0.40;35.30
60965;DHT22;46834;51.100;6.886;2023-03-01T06:15:24;0.60;36.10
60965;DHT22;46834;51.100;6.886;2023-03-01T06:17:50;0.50;35.40
60965;DHT22;46834;51.100;6.886;2023-03-01T06:20:22;0.50;35.40
60965;DHT22;46834;51.100;6.886;2023-03-01T06:22:49;0.50;35.60
60965;DHT22;46834;51.100;6.886;2023-03-01T06:25:21;0.50;35.50
60965;DHT22;46834;51.100;6.886;2023-03-01T06:27:49;0.50;35.60
60965;DHT22;46834;51.100;6.886;2023-03-01T06:30:17;0.50;35.50
60965;DHT22;46834;51.100;6.886;2023-03-01T06:32:44;0.60;35.70
60965;DHT22;46834;51.100;6.886;2023-03-01T06:35:12;0.50;35.80
60965;DHT22;46834;51.100;6.886;2023-03-01T06:37:42;0.60;35.90
60965;DHT22;46834;51.100;6.886;2023-03-01T06:40:09;0.60;35.80
60965;DHT22;46834;51.100;6.886;2023-03-01T06:42:38;0.60;35.80
60965;DHT22;46834;51.100;6.886;2023-03-01T06:45:05;0.60;35.90
60965;DHT22;46834;51.100;6.886;2023-03-01T06:47:33;0.60;35.80
60965;DHT22;46834;51.100;6.886;2023-03-01T06:50:03;0.60;35.80
60965;DHT22;46834;51.100;6.886;2023-03-01T06:52:29;0.60;35.90
60965;DHT22;46834;51.100;6.886;2023-03-01T06:54:55;0.70;35.90
60965;DHT22;46834;51.100;6.886;2023-03-01T06:57:20;0.70;35.90
60965;DHT22;46834;51.100;6.886;2023-03-01T06:59:47;0.70;36.00
60965;DHT22;46834;51.100;6.886;2023-03-01T07:02:14;0.80;36.00
60965;DHT22;46834;51.100;6.886;2023-03-01T07:04:40;0.80;36.00
60965;DHT22;46834;51.100;6.886;2023-03-01T07:07:06;0.90;36.00
60965;DHT22;46834;51.100;6.886;2023-03-01T07:09:32;0.90;36.00
60965;DHT22;46834;51.100;6.886;2023-03-01T07:11:58;0.90;36.00
60965;DHT22;46834;51.100;6.886;2023-03-01T07:14:24;1.00;36.00
60965;DHT22;46834;51.100;6.886;2023-03-01T07:16:54;1.00;36.00
60965;DHT22;46834;51.100;6.886;2023-03-01T07:19:20;1.10;36.00
60965;DHT22;46834;51.100;6.886;2023-03-01T07:21:47;1.10;36.10
60965;DHT22;46834;51.100;6.886;2023-03-01T07:24:12;1.10;36.00
60965;DHT22;46834;51.100;6.886;2023-03-01T07:26:38;1.10;35.90
60965;DHT22;46834;51.100;6.886;2023-03-01T07:29:06;1.20;36.00
60965;DHT22;46834;51.100;6.886;2023-03-01T07:31:33;1.20;36.00
60965;DHT22;46834;51.100;6.886;2023-03-01T07:33:59;1.30;36.10
60965;DHT22;46834;51.100;6.886;2023-03-01T07:36:25;1.30;36.00
60965;DHT22;46834;51.100;6.886;2023-03-01T07:38:51;1.30;36.10
60965;DHT22;46834;51.100;6.886;2023-03-01T07:41:17;1.40;36.10
60965;DHT22;46834;51.100;6.886;2023-03-01T07:43:43;1.40;36.10
60965;DHT22;46834;51.100;6.886;2023-03-01T07:46:08;1.50;36.10
60965;DHT22;46834;51.100;6.886;2023-03-01T07:48:34;1.50;36.10
60965;DHT22;46834;51.100;6.886;2023-03-01T07:51:01;1.60;36.30
60965;DHT22;46834;51.100;6.886;2023-03-01T07:53:28;1.70;36.20
60965;DHT22;46834;51.100;6.886;2023-03-01T07:56:04;1.70;36.10
60965;DHT22;46834;51.100;6.886;2023-03-01T07:58:34;1.80;36.20
60965;DHT22;46834;51.100;6.886;2023-03-01T08:01:02;1.80;36.10
60965;DHT22;46834;51.100;6.886;2023-03-01T08:03:29;1.90;36.10
60965;DHT22;46834;51.100;6.886;2023-03-01T08:05:55;2.00;36.10
60965;DHT22;46834;51.100;6.886;2023-03-01T08:08:21;2.00;36.00
60965;DHT22;46834;51.100;6.886;2023-03-01T08:10:46;2.10;36.10
60965;DHT22;46834;51.100;6.886;2023-03-01T08:13:12;2.10;36.10
60965;DHT22;46834;51.100;6.886;2023-03-01T08:15:38;2.20;36.20
60965;DHT22;46834;51.100;6.886;2023-03-01T08:18:03;2.20;36.10
60965;DHT22;46834;51.100;6.886;2023-03-01T08:20:29;2.30;36.10
60965;DHT22;46834;51.100;6.886;2023-03-01T08:22:55;2.30;36.10
60965;DHT22;46834;51.100;6.886;2023-03-01T08:25:23;2.40;36.00
60965;DHT22;46834;51.100;6.886;2023-03-01T08:27:48;2.40;35.90
60965;DHT22;46834;51.100;6.886;2023-03-01T08:30:14;2.30;36.40
60965;DHT22;46834;51.100;6.886;2023-03-01T08:32:40;2.40;36.30
60965;DHT22;46834;51.100;6.886;2023-03-01T08:35:06;2.50;36.20
60965;DHT22;46834;51.100;6.886;2023-03-01T08:37:32;2.60;36.10
60965;DHT22;46834;51.100;6.886;2023-03-01T08:39:59;2.70;36.10
60965;DHT22;46834;51.100;6.886;2023-03-01T08:42:26;2.70;36.00
60965;DHT22;46834;51.100;6.886;2023-03-01T08:44:52;2.60;36.50
60965;DHT22;46834;51.100;6.886;2023-03-01T08:47:17;2.70;36.40
60965;DHT22;46834;51.100;6.886;2023-03-01T08:49:44;2.70;36.40
60965;DHT22;46834;51.100;6.886;2023-03-01T08:52:09;2.80;36.30
60965;DHT22;46834;51.100;6.886;2023-03-01T08:54:35;2.90;36.10
60965;DHT22;46834;51.100;6.886;2023-03-01T08:57:02;2.90;36.10
60965;DHT22;46834;51.100;6.886;2023-03-01T08:59:28;3.00;36.20
60965;DHT22;46834;51.100;6.886;2023-03-01T09:01:56;3.10;36.10
60965;DHT22;46834;51.100;6.886;2023-03-01T09:04:22;3.20;36.00
60965;DHT22;46834;51.100;6.886;2023-03-01T09:06:48;3.30;35.90
60965;DHT22;46834;51.100;6.886;2023-03-01T09:09:16;3.30;35.80
60965;DHT22;46834;51.100;6.886;2023-03-01T09:11:44;3.40;35.80
60965;DHT22;46834;51.100;6.886;2023-03-01T09:14:15;3.50;35.80
60965;DHT22;46834;51.100;6.886;2023-03-01T09:16:41;3.50;35.60
60965;DHT22;46834;51.100;6.886;2023-03-01T09:19:07;3.60;35.60
60965;DHT22;46834;51.100;6.886;2023-03-01T09:21:33;3.70;35.60
60965;DHT22;46834;51.100;6.886;2023-03-01T09:23:58;3.70;35.50
60965;DHT22;46834;51.100;6.886;2023-03-01T09:26:25;3.80;35.60
60965;DHT22;46834;51.100;6.886;2023-03-01T09:28:53;3.90;35.60
60965;DHT22;46834;51.100;6.886;2023-03-01T09:31:22;3.80;35.60
60965;DHT22;46834;51.100;6.886;2023-03-01T09:33:52;3.80;35.60
60965;DHT22;46834;51.100;6.886;2023-03-01T09:36:21;3.90;35.60
60965;DHT22;46834;51.100;6.886;2023-03-01T09:38:49;4.00;35.50
60965;DHT22;46834;51.100;6.886;2023-03-01T09:43:53;4.20;35.40
60965;DHT22;46834;51.100;6.886;2023-03-01T09:46:25;4.30;35.30
60965;DHT22;46834;51.100;6.886;2023-03-01T09:48:56;4.30;35.20
60965;DHT22;46834;51.100;6.886;2023-03-01T09:51:30;4.40;35.10
60965;DHT22;46834;51.100;6.886;2023-03-01T09:53:58;4.50;35.30
60965;DHT22;46834;51.100;6.886;2023-03-01T10:02:29;4.70;35.00
60965;DHT22;46834;51.100;6.886;2023-03-01T10:05:12;4.80;35.10
60965;DHT22;46834;51.100;6.886;2023-03-01T10:10:40;5.00;34.80
60965;DHT22;46834;51.100;6.886;2023-03-01T10:16:47;4.80;34.00
60965;DHT22;46834;51.100;6.886;2023-03-01T10:19:32;4.70;33.90
60965;DHT22;46834;51.100;6.886;2023-03-01T10:22:29;4.90;34.50
60965;DHT22;46834;51.100;6.886;2023-03-01T10:24:58;5.00;34.50
60965;DHT22;46834;51.100;6.886;2023-03-01T10:33:13;5.60;35.30
60965;DHT22;46834;51.100;6.886;2023-03-01T10:36:02;5.90;35.40
60965;DHT22;46834;51.100;6.886;2023-03-01T10:38:31;6.10;34.80
60965;DHT22;46834;51.100;6.886;2023-03-01T10:41:14;6.40;34.60
60965;DHT22;46834;51.100;6.886;2023-03-01T10:43:46;6.60;34.40
60965;DHT22;46834;51.100;6.886;2023-03-01T10:46:35;6.80;34.00
60965;DHT22;46834;51.100;6.886;2023-03-01T10:49:15;6.90;33.60
60965;DHT22;46834;51.100;6.886;2023-03-01T10:51:47;7.00;33.20
60965;DHT22;46834;51.100;6.886;2023-03-01T10:54:29;7.00;33.40
60965;DHT22;46834;51.100;6.886;2023-03-01T10:57:02;7.10;33.30
60965;DHT22;46834;51.100;6.886;2023-03-01T10:59:35;7.00;32.70
60965;DHT22;46834;51.100;6.886;2023-03-01T11:07:52;7.10;32.70
60965;DHT22;46834;51.100;6.886;2023-03-01T11:10:31;7.00;32.60
60965;DHT22;46834;51.100;6.886;2023-03-01T11:13:08;7.10;32.70
60965;DHT22;46834;51.100;6.886;2023-03-01T11:15:41;7.10;32.70
60965;DHT22;46834;51.100;6.886;2023-03-01T11:18:21;6.70;31.20
60965;DHT22;46834;51.100;6.886;2023-03-01T11:20:49;6.80;31.80
60965;DHT22;46834;51.100;6.886;2023-03-01T11:23:20;6.90;32.50
60965;DHT22;46834;51.100;6.886;2023-03-01T11:26:07;7.00;32.70
60965;DHT22;46834;51.100;6.886;2023-03-01T11:28:37;7.10;32.20
60965;DHT22;46834;51.100;6.886;2023-03-01T11:31:10;7.10;32.50
60965;DHT22;46834;51.100;6.886;2023-03-01T11:38:55;7.10;32.00
60965;DHT22;46834;51.100;6.886;2023-03-01T11:41:33;7.20;32.40
60965;DHT22;46834;51.100;6.886;2023-03-01T11:44:26;7.10;31.20
60965;DHT22;46834;51.100;6.886;2023-03-01T11:47:23;7.10;32.00
60965;DHT22;46834;51.100;6.886;2023-03-01T11:50:35;7.30;31.70
60965;DHT22;46834;51.100;6.886;2023-03-01T11:56:34;7.50;31.70
60965;DHT22;46834;51.100;6.886;2023-03-01T12:08:24;8.00;31.90
60965;DHT22;46834;51.100;6.886;2023-03-01T12:14:31;7.80;31.00
60965;DHT22;46834;51.100;6.886;2023-03-01T12:17:32;7.90;31.60
60965;DHT22;46834;51.100;6.886;2023-03-01T12:20:25;8.10;31.70
60965;DHT22;46834;51.100;6.886;2023-03-01T12:26:20;8.30;31.60
60965;DHT22;46834;51.100;6.886;2023-03-01T12:29:17;8.50;31.70
60965;DHT22;46834;51.100;6.886;2023-03-01T12:34:49;8.60;31.90
60965;DHT22;46834;51.100;6.886;2023-03-01T12:37:51;8.70;31.80
60965;DHT22;46834;51.100;6.886;2023-03-01T12:40:33;8.80;31.60
60965;DHT22;46834;51.100;6.886;2023-03-01T12:43:05;8.90;32.10
60965;DHT22;46834;51.100;6.886;2023-03-01T12:45:54;8.90;32.20
60965;DHT22;46834;51.100;6.886;2023-03-01T12:51:46;9.00;31.80
60965;DHT22;46834;51.100;6.886;2023-03-01T12:54:33;9.00;32.10
60965;DHT22;46834;51.100;6.886;2023-03-01T12:57:31;9.00;32.10
60965;DHT22;46834;51.100;6.886;2023-03-01T13:00:28;8.80;31.10
60965;DHT22;46834;51.100;6.886;2023-03-01T13:03:15;8.90;31.80
60965;DHT22;46834;51.100;6.886;2023-03-01T13:06:12;9.00;32.10
60965;DHT22;46834;51.100;6.886;2023-03-01T13:11:22;9.20;31.90
60965;DHT22;46834;51.100;6.886;2023-03-01T13:13:49;9.20;31.90
60965;DHT22;46834;51.100;6.886;2023-03-01T13:16:40;9.30;32.00
60965;DHT22;46834;51.100;6.886;2023-03-01T13:19:25;9.30;31.60
60965;DHT22;46834;51.100;6.886;2023-03-01T13:21:55;9.40;31.60
60965;DHT22;46834;51.100;6.886;2023-03-01T13:32:25;9.40;31.60
60965;DHT22;46834;51.100;6.886;2023-03-01T13:37:44;9.50;31.80
60965;DHT22;46834;51.100;6.886;2023-03-01T13:42:52;9.60;31.60
60965;DHT22;46834;51.100;6.886;2023-03-01T13:45:25;9.60;31.40
60965;DHT22;46834;51.100;6.886;2023-03-01T13:48:11;9.60;31.50
60965;DHT22;46834;51.100;6.886;2023-03-01T13:50:59;9.30;30.50
60965;DHT22;46834;51.100;6.886;2023-03-01T13:53:31;9.40;31.20
60965;DHT22;46834;51.100;6.886;2023-03-01T13:56:07;9.30;30.80
60965;DHT22;46834;51.100;6.886;2023-03-01T13:58:44;9.40;31.30
60965;DHT22;46834;51.100;6.886;2023-03-01T14:01:22;9.50;31.30
60965;DHT22;46834;51.100;6.886;2023-03-01T14:03:51;9.60;31.30
60965;DHT22;46834;51.100;6.886;2023-03-01T14:06:25;9.60;31.40
60965;DHT22;46834;51.100;6.886;2023-03-01T14:09:10;9.70;31.30
60965;DHT22;46834;51.100;6.886;2023-03-01T14:12:12;9.70;31.30
60965;DHT22;46834;51.100;6.886;2023-03-01T14:15:19;9.70;31.40
60965;DHT22;46834;51.100;6.886;2023-03-01T14:20:27;9.80;31.60
60965;DHT22;46834;51.100;6.886;2023-03-01T14:23:00;9.80;31.60
60965;DHT22;46834;51.100;6.886;2023-03-01T14:25:35;9.80;31.50
60965;DHT22;46834;51.100;6.886;2023-03-01T14:28:21;9.80;31.30
60965;DHT22;46834;51.100;6.886;2023-03-01T14:30:59;9.80;30.90
60965;DHT22;46834;51.100;6.886;2023-03-01T14:33:36;9.80;31.20
60965;DHT22;46834;51.100;6.886;2023-03-01T14:41:11;9.70;30.90
60965;DHT22;46834;51.100;6.886;2023-03-01T14:43:57;9.70;31.00
60965;DHT22;46834;51.100;6.886;2023-03-01T14:46:36;9.70;30.90
60965;DHT22;46834;51.100;6.886;2023-03-01T14:49:14;9.70;30.80
60965;DHT22;46834;51.100;6.886;2023-03-01T14:51:59;9.70;30.80
60965;DHT22;46834;51.100;6.886;2023-03-01T14:54:35;9.70;31.00
60965;DHT22;46834;51.100;6.886;2023-03-01T14:57:06;9.70;31.10
60965;DHT22;46834;51.100;6.886;2023-03-01T14:59:47;9.70;31.20
60965;DHT22;46834;51.100;6.886;2023-03-01T15:02:18;9.70;31.10
60965;DHT22;46834;51.100;6.886;2023-03-01T15:04:55;9.70;31.10
60965;DHT22;46834;51.100;6.886;2023-03-01T15:07:27;9.70;30.80
60965;DHT22;46834;51.100;6.886;2023-03-01T15:09:59;9.70;31.00
60965;DHT22;46834;51.100;6.886;2023-03-01T15:14:58;9.80;30.80
60965;DHT22;46834;51.100;6.886;2023-03-01T15:17:37;9.80;30.80
60965;DHT22;46834;51.100;6.886;2023-03-01T15:20:07;9.70;30.60
60965;DHT22;46834;51.100;6.886;2023-03-01T15:22:44;9.80;30.80
60965;DHT22;46834;51.100;6.886;2023-03-01T15:25:22;9.70;30.70
60965;DHT22;46834;51.100;6.886;2023-03-01T15:27:52;9.70;30.50
60965;DHT22;46834;51.100;6.886;2023-03-01T15:30:31;9.70;30.80
60965;DHT22;46834;51.100;6.886;2023-03-01T15:35:49;9.70;30.40
60965;DHT22;46834;51.100;6.886;2023-03-01T15:38:36;9.70;30.70
60965;DHT22;46834;51.100;6.886;2023-03-01T15:43:58;9.70;30.40
60965;DHT22;46834;51.100;6.886;2023-03-01T15:46:31;9.70;30.50
60965;DHT22;46834;51.100;6.886;2023-03-01T15:51:50;9.70;30.30
60965;DHT22;46834;51.100;6.886;2023-03-01T15:54:21;9.60;30.50
60965;DHT22;46834;51.100;6.886;2023-03-01T15:56:49;9.60;30.30
60965;DHT22;46834;51.100;6.886;2023-03-01T15:59:16;9.60;30.20
60965;DHT22;46834;51.100;6.886;2023-03-01T16:01:43;9.50;30.10
60965;DHT22;46834;51.100;6.886;2023-03-01T16:04:15;9.50;30.10
60965;DHT22;46834;51.100;6.886;2023-03-01T16:06:53;9.50;30.00
60965;DHT22;46834;51.100;6.886;2023-03-01T16:09:28;9.50;30.00
60965;DHT22;46834;51.100;6.886;2023-03-01T16:11:54;9.40;29.90
60965;DHT22;46834;51.100;6.886;2023-03-01T16:14:20;9.40;30.10
60965;DHT22;46834;51.100;6.886;2023-03-01T16:16:50;9.30;30.00
60965;DHT22;46834;51.100;6.886;2023-03-01T16:19:17;9.30;30.00
60965;DHT22;46834;51.100;6.886;2023-03-01T16:21:43;9.30;30.00
60965;DHT22;46834;51.100;6.886;2023-03-01T16:24:12;9.30;30.00
60965;DHT22;46834;51.100;6.886;2023-03-01T16:26:38;9.30;30.00
60965;DHT22;46834;51.100;6.886;2023-03-01T16:29:04;9.20;30.00
60965;DHT22;46834;51.100;6.886;2023-03-01T16:31:33;9.20;30.00
60965;DHT22;46834;51.100;6.886;2023-03-01T16:33:59;9.20;30.00
60965;DHT22;46834;51.100;6.886;2023-03-01T16:36:26;9.10;29.90
60965;DHT22;46834;51.100;6.886;2023-03-01T16:38:54;9.10;29.90
60965;DHT22;46834;51.100;6.886;2023-03-01T16:41:23;9.00;29.90
60965;DHT22;46834;51.100;6.886;2023-03-01T16:43:50;9.00;29.90
60965;DHT22;46834;51.100;6.886;2023-03-01T16:48:46;8.90;29.80
60965;DHT22;46834;51.100;6.886;2023-03-01T16:51:13;8.90;29.90
60965;DHT22;46834;51.100;6.886;2023-03-01T16:53:39;8.80;29.80
60965;DHT22;46834;51.100;6.886;2023-03-01T16:56:07;8.70;29.80
60965;DHT22;46834;51.100;6.886;2023-03-01T16:58:36;8.70;29.80
60965;DHT22;46834;51.100;6.886;2023-03-01T17:01:11;8.60;29.70
60965;DHT22;46834;51.100;6.886;2023-03-01T17:03:40;8.60;29.60
60965;DHT22;46834;51.100;6.886;2023-03-01T17:06:09;8.50;29.70
60965;DHT22;46834;51.100;6.886;2023-03-01T17:08:38;8.40;29.70
60965;DHT22;46834;51.100;6.886;2023-03-01T17:11:12;8.40;29.70
60965;DHT22;46834;51.100;6.886;2023-03-01T17:13:41;8.30;29.50
60965;DHT22;46834;51.100;6.886;2023-03-01T17:16:09;8.20;29.60
60965;DHT22;46834;51.100;6.886;2023-03-01T17:18:36;8.10;29.60
60965;DHT22;46834;51.100;6.886;2023-03-01T17:21:03;8.00;29.60
60965;DHT22;46834;51.100;6.886;2023-03-01T17:23:30;8.00;29.70
60965;DHT22;46834;51.100;6.886;2023-03-01T17:25:57;7.90;29.60
60965;DHT22;46834;51.100;6.886;2023-03-01T17:28:24;7.90;29.70
60965;DHT22;46834;51.100;6.886;2023-03-01T17:30:52;7.80;29.60
60965;DHT22;46834;51.100;6.886;2023-03-01T17:33:18;7.70;29.60
60965;DHT22;46834;51.100;6.886;2023-03-01T17:35:45;7.60;29.50
60965;DHT22;46834;51.100;6.886;2023-03-01T17:38:13;7.60;29.60
60965;DHT22;46834;51.100;6.886;2023-03-01T17:40:40;7.50;29.60
60965;DHT22;46834;51.100;6.886;2023-03-01T17:43:07;7.40;29.50
60965;DHT22;46834;51.100;6.886;2023-03-01T17:45:36;7.40;29.60
60965;DHT22;46834;51.100;6.886;2023-03-01T17:48:03;7.30;29.50
60965;DHT22;46834;51.100;6.886;2023-03-01T17:50:29;7.30;29.60
60965;DHT22;46834;51.100;6.886;2023-03-01T17:52:55;7.20;29.60
60965;DHT22;46834;51.100;6.886;2023-03-01T17:55:21;7.20;29.60
60965;DHT22;46834;51.100;6.886;2023-03-01T17:57:47;7.10;29.60